createdAt,value
2022-09-15T00:01:50.862Z,18.34
2022-09-15T00:11:55.964Z,18.42
2022-09-15T00:21:59.589Z,18.33
2022-09-15T00:32:04.996Z,18.06
2022-09-15T00:42:15.374Z,17.88
2022-09-15T00:52:26.667Z,17.86
2022-09-15T01:02:34.072Z,17.70
2022-09-15T01:12:40.995Z,17.77
2022-09-15T01:23:02.954Z,17.67
2022-09-15T01:33:32.316Z,17.49
2022-09-15T01:43:40.807Z,17.10
2022-09-15T01:53:46.937Z,17.04
2022-09-15T02:03:55.844Z,16.94
2022-09-15T02:14:11.263Z,16.98
2022-09-15T02:24:19.579Z,16.95
2022-09-15T02:34:29.037Z,16.81
2022-09-15T02:44:33.508Z,16.83
2022-09-15T02:54:38.416Z,16.71
2022-09-15T03:04:42.065Z,16.53
2022-09-15T03:14:47.199Z,16.71
2022-09-15T03:24:51.747Z,16.36
2022-09-15T03:34:59.110Z,16.38
2022-09-15T03:45:03.615Z,16.22
2022-09-15T03:55:11.016Z,16.32
2022-09-15T04:05:14.723Z,16.25
2022-09-15T04:15:20.259Z,16.29
2022-09-15T04:25:24.138Z,16.42
2022-09-15T04:35:30.801Z,16.25
2022-09-15T04:45:40.577Z,16.38
2022-09-15T04:55:47.531Z,16.24
2022-09-15T05:05:51.295Z,16.33
2022-09-15T05:15:56.325Z,16.41
2022-09-15T05:26:04.122Z,16.35
2022-09-15T05:36:10.956Z,16.43
2022-09-15T05:46:16.471Z,16.42
2022-09-15T05:56:21.772Z,16.52
2022-09-15T06:06:26.880Z,16.60
2022-09-15T06:16:34.301Z,16.67
2022-09-15T06:26:37.986Z,16.74
2022-09-15T06:36:43.833Z,16.83
2022-09-15T06:46:47.891Z,17.14
2022-09-15T06:56:52.998Z,17.38
2022-09-15T07:06:57.478Z,17.43
2022-09-15T07:17:02.873Z,17.62
2022-09-15T07:27:08.232Z,17.81
2022-09-15T07:37:13.246Z,17.96
2022-09-15T07:47:16.832Z,17.89
2022-09-15T07:57:21.998Z,18.27
2022-09-15T08:07:26.118Z,18.01
2022-09-15T08:17:31.414Z,18.25
2022-09-15T08:27:35.087Z,18.37
2022-09-15T08:37:40.366Z,18.53
2022-09-15T08:47:48.657Z,18.36
2022-09-15T08:57:55.592Z,18.33
2022-09-15T09:08:40.391Z,18.83
2022-09-15T09:19:05.263Z,18.99
2022-09-15T09:29:16.485Z,18.86
2022-09-15T09:39:22.629Z,19.24
2022-09-15T09:49:28.360Z,19.31
2022-09-15T09:59:42.037Z,19.43
2022-09-15T10:09:55.478Z,20.06
2022-09-15T10:20:00.602Z,20.32
2022-09-15T10:30:19.744Z,20.23
2022-09-15T10:40:35.276Z,21.01
2022-09-15T10:50:51.635Z,21.11
2022-09-15T11:01:10.802Z,21.48
2022-09-15T11:11:26.450Z,20.68
2022-09-15T11:21:39.040Z,20.22
2022-09-15T11:31:46.184Z,19.76
2022-09-15T11:41:56.521Z,19.53
2022-09-15T11:52:09.910Z,20.00
2022-09-15T12:02:26.627Z,20.47
2022-09-15T12:12:31.442Z,19.73
2022-09-15T12:22:42.850Z,20.07
2022-09-15T12:32:49.147Z,20.28
2022-09-15T12:42:57.562Z,20.71
2022-09-15T12:53:04.676Z,20.73
2022-09-15T13:03:30.010Z,20.54
2022-09-15T13:13:39.858Z,20.47
2022-09-15T13:23:48.956Z,20.97
2022-09-15T13:45:16.139Z,21.46
2022-09-15T13:55:26.133Z,21.43
2022-09-15T14:05:35.208Z,20.84
2022-09-15T14:15:40.693Z,20.47
2022-09-15T14:25:47.367Z,20.42
2022-09-15T14:35:51.090Z,21.03
2022-09-15T14:46:05.416Z,21.08
2022-09-15T14:56:17.936Z,21.34
2022-09-15T15:06:29.466Z,21.43
2022-09-15T15:16:33.601Z,21.02
2022-09-15T15:26:40.437Z,21.29
2022-09-15T15:36:46.509Z,21.42
2022-09-15T15:46:56.894Z,21.08
2022-09-15T15:57:25.161Z,20.31
2022-09-15T16:07:33.432Z,20.03
2022-09-15T16:17:37.318Z,20.08
2022-09-15T16:27:42.624Z,19.90
2022-09-15T16:37:47.200Z,19.61
2022-09-15T16:47:55.202Z,19.41
2022-09-15T16:57:59.735Z,19.23
2022-09-15T17:08:05.696Z,18.87
2022-09-15T17:18:13.348Z,18.71
2022-09-15T17:28:20.908Z,18.64
2022-09-15T17:38:27.115Z,18.51
2022-09-15T17:48:32.145Z,18.44
2022-09-15T17:58:35.768Z,18.36
2022-09-15T18:08:41.258Z,18.31
2022-09-15T18:18:44.972Z,18.15
2022-09-15T18:28:50.059Z,18.19
2022-09-15T18:38:53.780Z,17.90
2022-09-15T18:48:59.147Z,17.83
2022-09-15T18:59:02.778Z,17.56
2022-09-15T19:09:07.699Z,17.12
2022-09-15T19:19:11.570Z,16.99
2022-09-15T19:29:16.626Z,16.85
2022-09-15T19:39:20.346Z,16.66
2022-09-15T19:49:25.897Z,16.60
2022-09-15T19:59:31.554Z,16.63
2022-09-15T20:09:38.008Z,16.59
2022-09-15T20:19:42.029Z,16.52
2022-09-15T20:29:47.289Z,16.52
2022-09-15T20:39:51.488Z,16.53
2022-09-15T20:49:56.562Z,16.59
2022-09-15T21:00:00.151Z,16.54
2022-09-15T21:10:06.686Z,16.43
2022-09-15T21:20:11.172Z,16.28
2022-09-15T21:30:16.962Z,16.24
2022-09-15T21:40:20.685Z,16.25
2022-09-15T21:50:27.210Z,16.19
2022-09-15T22:00:30.883Z,16.12
2022-09-15T22:10:36.135Z,16.19
2022-09-15T22:20:39.735Z,16.18
2022-09-15T22:30:44.831Z,16.21
2022-09-15T22:40:48.441Z,16.16
2022-09-15T22:50:53.605Z,16.19
2022-09-15T23:01:04.984Z,16.16
2022-09-15T23:11:12.176Z,16.09
2022-09-15T23:21:16.063Z,16.11
2022-09-15T23:31:22.508Z,16.15
2022-09-15T23:41:26.402Z,16.14
2022-09-15T23:51:32.250Z,16.04
